Sumiwakamaru No.3 — JL6169 — position and weather

sailwx.info

Track history (hours):
 
Tides and Currents Weather Stations Pressure Air Temp Water Temp Dewpoint Dewpoint Depression Visibility Wind Speed Wind Dir Waves Ship Positions

Sumiwakamaru No.3

Last reported at 2017-Nov-05 20:43 UTC. Time now 2017-Nov-22 09:23 UTC.
Position N 34°38' E 135°27'.
Warning: this ship's position is 16 days out of date.

Length 70 m.

Type: Cargo ship. MMSI: 431500108.

Date/timePositionNaut miles runAvg speedWind from/ knotsBaromVisibWave heightAir tempDewpointWater temp
2017-Nov-05 20:43N 34°38' E 135°27'2 5.2
2017-Nov-05 20:18N 34°39' E 135°24'411.4
2017-Nov-05 19:55N 34°36' E 135°20'511.6
2017-Nov-05 19:29N 34°32' E 135°16'2010.7
2017-Nov-05 17:36N 34°15' E 135°03'111.8
2017-Nov-05 17:29N 34°14' E 135°03'234 8.8
2017-Nov-04 15:05N 35°06' E 139°40'114.0
2017-Nov-04 15:00N 35°06' E 139°41'713.1
2017-Nov-04 14:30N 35°12' E 139°46'611.5
2017-Nov-04 13:56N 35°18' E 139°44'611.1
2017-Nov-04 13:24N 35°24' E 139°42'511.5
2017-Nov-04 12:59N 35°29' E 139°42'1 0.6
2017-Nov-04 10:26N 35°30' E 139°43'0 0.0
2017-Nov-04 09:57N 35°30' E 139°43'18 0.4
2017-Nov-02 07:53N 35°12' E 139°47'410.4
2017-Nov-02 07:30N 35°08' E 139°45'611.6
2017-Nov-02 06:59N 35°04' E 139°40'  
2017-Oct-28 04:04N 34°36' E 135°04'113.8
2017-Oct-28 03:59N 34°35' E 135°06'713.7
2017-Oct-28 03:31N 34°34' E 135°14'21 1.1
2017-Oct-27 07:39N 34°15' E 135°03'  
Track history (hours):
 
Tides and Currents Weather Stations Pressure Air Temp Water Temp Dewpoint Dewpoint Depression Visibility Wind Speed Wind Dir Waves Ship Positions

Sumiwakamaru No.3

Last reported at 2017-Nov-05 20:43 UTC. Time now 2017-Nov-22 09:23 UTC.
Position N 34°38' E 135°27'.
Warning: this ship's position is 16 days out of date.

Length 70 m.

Type: Cargo ship. MMSI: 431500108.

Date/timePositionNaut miles runAvg speedWind from/ knotsBaromVisibWave heightAir tempDewpointWater temp
2017-Nov-05 20:43N 34°38' E 135°27'2 5.2
2017-Nov-05 20:18N 34°39' E 135°24'411.4
2017-Nov-05 19:55N 34°36' E 135°20'511.6
2017-Nov-05 19:29N 34°32' E 135°16'2010.7
2017-Nov-05 17:36N 34°15' E 135°03'111.8
2017-Nov-05 17:29N 34°14' E 135°03'234 8.8
2017-Nov-04 15:05N 35°06' E 139°40'114.0
2017-Nov-04 15:00N 35°06' E 139°41'713.1
2017-Nov-04 14:30N 35°12' E 139°46'611.5
2017-Nov-04 13:56N 35°18' E 139°44'611.1
2017-Nov-04 13:24N 35°24' E 139°42'511.5
2017-Nov-04 12:59N 35°29' E 139°42'1 0.6
2017-Nov-04 10:26N 35°30' E 139°43'0 0.0
2017-Nov-04 09:57N 35°30' E 139°43'18 0.4
2017-Nov-02 07:53N 35°12' E 139°47'410.4
2017-Nov-02 07:30N 35°08' E 139°45'611.6
2017-Nov-02 06:59N 35°04' E 139°40'  
2017-Oct-28 04:04N 34°36' E 135°04'113.8
2017-Oct-28 03:59N 34°35' E 135°06'713.7
2017-Oct-28 03:31N 34°34' E 135°14'21 1.1
2017-Oct-27 07:39N 34°15' E 135°03'  

Dump ship's entire track history